createdAt,value
2022-12-04T00:02:26.590Z,2.08
2022-12-04T00:04:55.285Z,2.13
2022-12-04T00:07:25.697Z,2.15
2022-12-04T00:09:54.701Z,2.00
2022-12-04T00:12:23.902Z,1.97
2022-12-04T00:15:23.815Z,2.00
2022-12-04T00:17:40.841Z,2.06
2022-12-04T00:20:10.503Z,2.07
2022-12-04T00:22:40.406Z,2.00
2022-12-04T00:25:09.857Z,2.05
2022-12-04T00:27:38.166Z,1.97
2022-12-04T00:30:08.818Z,1.91
2022-12-04T00:32:37.082Z,1.96
2022-12-04T00:35:07.188Z,1.94
2022-12-04T00:37:36.134Z,1.81
2022-12-04T00:40:08.452Z,1.97
2022-12-04T00:42:37.327Z,1.94
2022-12-04T00:45:06.685Z,2.01
2022-12-04T00:47:34.919Z,1.89
2022-12-04T00:50:04.267Z,1.94
2022-12-04T00:52:33.734Z,1.92
2022-12-04T00:55:02.166Z,1.96
2022-12-04T00:57:31.881Z,1.93
2022-12-04T01:00:00.818Z,2.01
2022-12-04T01:02:31.180Z,1.97
2022-12-04T01:05:03.207Z,1.91
2022-12-04T01:07:31.654Z,1.86
2022-12-04T01:10:00.683Z,1.85
2022-12-04T01:12:29.395Z,1.86
2022-12-04T01:14:59.308Z,1.81
2022-12-04T01:17:28.297Z,1.84
2022-12-04T01:19:57.502Z,1.80
2022-12-04T01:22:28.442Z,1.84
2022-12-04T01:24:57.830Z,1.83
2022-12-04T01:27:26.910Z,1.84
2022-12-04T01:29:55.618Z,1.93
2022-12-04T01:32:25.661Z,1.87
2022-12-04T01:34:53.955Z,1.91
2022-12-04T01:37:23.635Z,1.90
2022-12-04T01:39:52.297Z,1.95
2022-12-04T01:42:20.664Z,1.85
2022-12-04T01:45:34.959Z,1.88
2022-12-04T01:48:17.211Z,1.89
2022-12-04T01:50:46.855Z,1.78
2022-12-04T01:53:16.108Z,1.88
2022-12-04T01:55:46.383Z,1.86
2022-12-04T01:58:17.947Z,1.80
2022-12-04T02:00:51.504Z,1.93
2022-12-04T02:03:22.073Z,1.86
2022-12-04T02:05:50.361Z,1.67
2022-12-04T02:08:19.320Z,1.77
2022-12-04T02:11:02.954Z,1.73
2022-12-04T02:13:42.808Z,1.73
2022-12-04T02:16:19.901Z,1.83
2022-12-04T02:19:00.301Z,1.84
2022-12-04T02:21:34.665Z,1.89
2022-12-04T02:24:48.451Z,1.89
2022-12-04T02:27:49.319Z,1.86
2022-12-04T02:30:17.974Z,1.79
2022-12-04T02:32:52.802Z,1.74
2022-12-04T02:35:27.491Z,1.89
2022-12-04T02:38:04.540Z,1.98
2022-12-04T02:40:45.486Z,1.89
2022-12-04T02:43:20.858Z,1.87
2022-12-04T02:45:59.379Z,2.02
2022-12-04T02:48:30.580Z,1.91
2022-12-04T02:51:02.921Z,1.79
2022-12-04T02:53:37.395Z,1.75
2022-12-04T02:56:11.294Z,1.61
2022-12-04T02:58:45.353Z,1.71
2022-12-04T03:01:22.965Z,1.76
2022-12-04T03:03:57.813Z,1.74
2022-12-04T03:06:29.655Z,1.85
2022-12-04T03:09:06.126Z,1.78
2022-12-04T03:11:39.496Z,1.84
2022-12-04T03:14:15.297Z,1.79
2022-12-04T03:16:45.403Z,1.82
2022-12-04T03:19:20.876Z,1.92
2022-12-04T03:21:59.172Z,1.79
2022-12-04T03:24:31.946Z,1.73
2022-12-04T03:27:10.369Z,1.79
2022-12-04T03:29:45.536Z,1.68
2022-12-04T03:32:17.688Z,1.73
2022-12-04T03:34:54.735Z,1.74
2022-12-04T03:37:35.370Z,1.59
2022-12-04T03:40:12.647Z,1.60
2022-12-04T03:42:46.659Z,1.65
2022-12-04T03:45:25.964Z,1.69
2022-12-04T03:48:02.869Z,1.67
2022-12-04T03:50:39.206Z,1.64
2022-12-04T03:53:15.686Z,1.75
2022-12-04T03:55:50.787Z,1.71
2022-12-04T03:58:25.753Z,1.70
2022-12-04T04:00:59.389Z,1.67
2022-12-04T04:03:32.560Z,1.62
2022-12-04T04:06:08.784Z,1.60
2022-12-04T04:08:44.566Z,1.50
2022-12-04T04:11:21.237Z,1.48
2022-12-04T04:14:18.851Z,1.43
2022-12-04T04:17:12.335Z,1.53
2022-12-04T04:20:00.875Z,1.47
2022-12-04T04:22:50.449Z,1.36
2022-12-04T04:25:26.853Z,1.28
2022-12-04T04:27:56.934Z,1.34
2022-12-04T04:30:26.238Z,1.43
2022-12-04T04:33:02.357Z,1.40
2022-12-04T04:35:43.580Z,1.40
2022-12-04T04:38:18.928Z,1.41
2022-12-04T04:40:57.617Z,1.36
2022-12-04T04:43:32.763Z,1.25
2022-12-04T04:46:10.240Z,1.38
2022-12-04T04:48:46.446Z,1.29
2022-12-04T04:51:16.471Z,1.31
2022-12-04T04:53:50.754Z,1.34
2022-12-04T04:56:19.445Z,1.34
2022-12-04T04:58:47.773Z,1.30
2022-12-04T05:01:19.894Z,1.31
2022-12-04T05:03:49.890Z,1.25
2022-12-04T05:06:18.171Z,1.31
2022-12-04T05:08:49.302Z,1.29
2022-12-04T05:11:18.703Z,1.37
2022-12-04T05:13:47.886Z,1.34
2022-12-04T05:16:17.534Z,1.28
2022-12-04T05:19:06.833Z,1.25
2022-12-04T05:21:35.808Z,1.12
2022-12-04T05:24:04.391Z,1.09
2022-12-04T05:26:34.246Z,1.16
2022-12-04T05:29:02.441Z,1.25
2022-12-04T05:31:30.675Z,1.23
2022-12-04T05:33:59.172Z,1.08
2022-12-04T05:36:27.814Z,1.17
2022-12-04T05:38:57.523Z,1.19
2022-12-04T05:41:27.058Z,1.14
2022-12-04T05:43:55.267Z,1.17
2022-12-04T05:46:23.749Z,1.21
2022-12-04T05:48:52.468Z,1.10
2022-12-04T05:51:20.753Z,1.00
2022-12-04T05:53:49.218Z,0.90
2022-12-04T05:56:18.807Z,1.00
2022-12-04T05:58:47.110Z,0.90
2022-12-04T06:01:20.422Z,0.91
2022-12-04T06:03:48.764Z,0.99
2022-12-04T06:06:22.271Z,0.97
2022-12-04T06:08:52.166Z,0.93
2022-12-04T06:11:25.910Z,0.90
2022-12-04T06:13:55.514Z,0.97
2022-12-04T06:16:28.070Z,0.81
2022-12-04T06:18:59.471Z,0.76
2022-12-04T06:21:31.777Z,0.83
2022-12-04T06:24:00.643Z,0.83
2022-12-04T06:26:31.256Z,0.76
2022-12-04T06:29:01.206Z,0.82
2022-12-04T06:31:31.309Z,0.64
2022-12-04T06:34:00.850Z,0.63
2022-12-04T06:36:29.731Z,0.70
2022-12-04T06:38:59.151Z,0.74
2022-12-04T06:41:31.380Z,0.78
2022-12-04T06:44:00.521Z,0.68
2022-12-04T06:46:31.213Z,0.69
2022-12-04T06:49:01.686Z,0.65
2022-12-04T06:51:33.805Z,0.64
2022-12-04T06:54:03.276Z,0.73
2022-12-04T06:56:35.177Z,0.70
2022-12-04T06:59:05.723Z,0.81
2022-12-04T07:01:36.097Z,0.83
2022-12-04T07:04:05.276Z,0.77
2022-12-04T07:06:35.787Z,0.76
2022-12-04T07:09:07.903Z,0.79
2022-12-04T07:11:38.783Z,0.87
2022-12-04T07:14:07.513Z,0.79
2022-12-04T07:16:40.792Z,0.66
2022-12-04T07:19:09.561Z,0.68
2022-12-04T07:21:38.238Z,0.66
2022-12-04T07:24:07.531Z,0.70
2022-12-04T07:26:37.441Z,0.59
2022-12-04T07:29:05.656Z,0.60
2022-12-04T07:31:34.299Z,0.55
2022-12-04T07:34:02.506Z,0.71
2022-12-04T07:36:31.332Z,0.64
2022-12-04T07:38:59.633Z,0.70
2022-12-04T07:41:27.867Z,0.74
2022-12-04T07:43:58.058Z,0.69
2022-12-04T07:46:29.364Z,0.73
2022-12-04T07:48:59.835Z,0.65
2022-12-04T07:51:30.503Z,0.65
2022-12-04T07:54:03.237Z,0.63
2022-12-04T07:56:32.723Z,0.60
2022-12-04T07:59:03.035Z,0.66
2022-12-04T08:01:31.801Z,0.80
2022-12-04T08:04:03.378Z,0.77
2022-12-04T08:06:35.821Z,0.61
2022-12-04T08:09:09.423Z,0.72
2022-12-04T08:11:38.824Z,0.75
2022-12-04T08:14:09.669Z,0.76
2022-12-04T08:16:38.434Z,0.69
2022-12-04T08:19:07.412Z,0.86
2022-12-04T08:21:35.836Z,0.71
2022-12-04T08:24:04.250Z,0.52
2022-12-04T08:26:33.618Z,0.47
2022-12-04T08:29:04.071Z,0.45
2022-12-04T08:31:36.656Z,0.49
2022-12-04T08:34:07.648Z,0.39
2022-12-04T08:36:36.510Z,0.37
2022-12-04T08:39:06.131Z,0.39
2022-12-04T08:41:34.424Z,0.40
2022-12-04T08:44:02.713Z,0.42
2022-12-04T08:46:31.589Z,0.46
2022-12-04T08:49:01.847Z,0.54
2022-12-04T08:51:34.513Z,0.46
2022-12-04T08:54:05.589Z,0.43
2022-12-04T08:56:35.148Z,0.42
2022-12-04T08:59:04.317Z,0.46
2022-12-04T09:01:32.802Z,0.57
2022-12-04T09:04:02.847Z,0.60
2022-12-04T09:06:31.341Z,0.44
2022-12-04T09:08:59.951Z,0.54
2022-12-04T09:11:32.450Z,0.54
2022-12-04T09:14:03.423Z,0.50
2022-12-04T09:16:32.701Z,0.55
2022-12-04T09:19:02.391Z,0.51
2022-12-04T09:21:31.194Z,0.31
2022-12-04T09:24:02.264Z,0.39
2022-12-04T09:26:33.599Z,0.44
2022-12-04T09:29:04.247Z,0.52
2022-12-04T09:31:33.832Z,0.42
2022-12-04T09:34:04.644Z,0.55
2022-12-04T09:36:32.875Z,0.74
2022-12-04T09:39:01.075Z,0.65
2022-12-04T09:42:12.948Z,0.61
2022-12-04T09:44:45.125Z,0.58
2022-12-04T09:47:22.666Z,0.48
2022-12-04T09:49:58.222Z,0.63
2022-12-04T09:52:43.301Z,0.71
2022-12-04T09:55:19.307Z,0.50
2022-12-04T09:57:57.077Z,0.71
2022-12-04T10:00:30.345Z,0.51
2022-12-04T10:03:03.781Z,0.56
2022-12-04T10:05:49.354Z,0.88
2022-12-04T10:08:22.385Z,0.69
2022-12-04T10:11:05.515Z,0.69
2022-12-04T10:14:04.068Z,0.61
2022-12-04T10:16:48.668Z,0.69
2022-12-04T10:19:25.550Z,0.88
2022-12-04T10:22:09.472Z,0.97
2022-12-04T10:24:47.105Z,0.77
2022-12-04T10:27:23.214Z,0.78
2022-12-04T10:29:58.052Z,0.64
2022-12-04T10:32:32.756Z,0.58
2022-12-04T10:35:16.635Z,0.53
2022-12-04T10:37:47.536Z,0.51
2022-12-04T10:40:23.215Z,0.43
2022-12-04T10:43:00.392Z,0.59
2022-12-04T10:45:29.200Z,0.57
2022-12-04T10:47:57.886Z,0.63
2022-12-04T10:50:26.707Z,0.73
2022-12-04T10:52:57.821Z,0.78
2022-12-04T10:55:31.592Z,0.60
2022-12-04T10:57:59.885Z,0.58
2022-12-04T11:00:32.428Z,0.73
2022-12-04T11:03:04.185Z,0.84
2022-12-04T11:05:40.021Z,0.91
2022-12-04T11:08:22.400Z,0.79
2022-12-04T11:11:00.371Z,1.03
2022-12-04T11:13:28.847Z,1.14
2022-12-04T11:15:59.535Z,0.96
2022-12-04T11:18:30.969Z,1.08
2022-12-04T11:21:02.086Z,1.21
2022-12-04T11:23:35.590Z,0.99
2022-12-04T11:26:06.494Z,1.01
2022-12-04T11:28:42.159Z,1.11
2022-12-04T11:31:18.295Z,1.00
2022-12-04T11:33:49.765Z,0.79
2022-12-04T11:36:24.231Z,0.78
2022-12-04T11:39:05.195Z,0.86
2022-12-04T11:41:34.834Z,0.94
2022-12-04T11:44:03.398Z,1.03
2022-12-04T11:46:34.028Z,0.94
2022-12-04T11:49:04.216Z,0.87
2022-12-04T11:51:52.708Z,0.88
2022-12-04T11:54:34.816Z,0.92
2022-12-04T11:57:17.314Z,0.92
2022-12-04T12:00:03.920Z,0.98
2022-12-04T12:03:04.394Z,0.99
2022-12-04T12:06:13.624Z,0.97
2022-12-04T12:09:12.890Z,0.93
2022-12-04T12:11:50.698Z,0.79
2022-12-04T12:14:27.419Z,0.89
2022-12-04T12:17:09.984Z,0.94
2022-12-04T12:20:09.329Z,0.99
2022-12-04T12:23:10.725Z,0.89
2022-12-04T12:25:52.464Z,0.66
2022-12-04T12:28:45.068Z,0.83
2022-12-04T12:31:50.814Z,0.99
2022-12-04T12:34:32.887Z,1.08
2022-12-04T12:37:06.927Z,1.10
2022-12-04T12:39:41.649Z,1.05
2022-12-04T12:42:20.481Z,1.02
2022-12-04T12:45:00.596Z,1.27
2022-12-04T12:47:37.583Z,1.10
2022-12-04T12:50:15.590Z,1.07
2022-12-04T12:52:52.766Z,1.07
2022-12-04T12:55:26.541Z,0.97
2022-12-04T12:58:06.697Z,0.92
2022-12-04T13:00:45.145Z,1.01
2022-12-04T13:03:29.047Z,1.04
2022-12-04T13:06:04.920Z,1.08
2022-12-04T13:08:43.605Z,1.13
2022-12-04T13:11:19.821Z,1.12
2022-12-04T13:13:53.159Z,1.09
2022-12-04T13:16:28.096Z,1.01
2022-12-04T13:19:09.927Z,1.07
2022-12-04T13:21:44.264Z,1.16
2022-12-04T13:24:56.179Z,1.25
2022-12-04T13:27:39.764Z,1.27
2022-12-04T13:30:17.942Z,1.29
2022-12-04T13:33:30.472Z,1.30
2022-12-04T13:36:33.175Z,1.45
2022-12-04T13:39:34.040Z,1.32
2022-12-04T13:42:06.651Z,1.40
2022-12-04T13:44:36.710Z,1.28
2022-12-04T13:47:09.527Z,1.42
2022-12-04T13:49:45.856Z,1.31
2022-12-04T13:52:26.151Z,1.30
2022-12-04T13:54:59.686Z,1.36
2022-12-04T13:57:29.474Z,1.39
2022-12-04T14:00:08.121Z,1.43
2022-12-04T14:02:52.293Z,1.49
2022-12-04T14:05:30.460Z,1.51
2022-12-04T14:08:07.592Z,1.40
2022-12-04T14:10:40.071Z,1.48
2022-12-04T14:13:20.758Z,1.65
2022-12-04T14:15:49.783Z,1.61
2022-12-04T14:18:28.762Z,1.62
2022-12-04T14:21:04.843Z,1.61
2022-12-04T14:23:39.674Z,1.54
2022-12-04T14:26:37.326Z,1.51
2022-12-04T14:29:39.361Z,1.41
2022-12-04T14:32:15.011Z,1.25
2022-12-04T14:34:43.988Z,1.41
2022-12-04T14:37:26.367Z,1.65
2022-12-04T14:39:56.989Z,1.54
2022-12-04T14:42:28.581Z,1.60
2022-12-04T14:44:59.954Z,1.42
2022-12-04T14:47:43.774Z,1.30
2022-12-04T14:50:33.709Z,1.50
2022-12-04T14:53:17.555Z,1.52
2022-12-04T14:56:02.181Z,1.62
2022-12-04T14:58:35.819Z,1.58
2022-12-04T15:01:08.340Z,1.48
2022-12-04T15:03:38.118Z,1.47
2022-12-04T15:06:10.151Z,1.56
2022-12-04T15:08:51.622Z,1.58
2022-12-04T15:11:39.874Z,1.57
2022-12-04T15:14:14.906Z,1.60
2022-12-04T15:16:43.561Z,1.51
2022-12-04T15:19:21.408Z,1.56
2022-12-04T15:21:50.457Z,1.52
2022-12-04T15:24:23.441Z,1.50
2022-12-04T15:26:54.448Z,1.51
2022-12-04T15:29:27.061Z,1.59
2022-12-04T15:31:59.627Z,1.67
2022-12-04T15:34:39.100Z,1.56
2022-12-04T15:37:14.361Z,1.55
2022-12-04T15:39:45.110Z,1.65
2022-12-04T15:42:20.250Z,1.40
2022-12-04T15:44:55.108Z,1.53
2022-12-04T15:47:26.496Z,1.44
2022-12-04T15:49:55.311Z,1.35
2022-12-04T15:52:25.945Z,1.47
2022-12-04T15:55:01.009Z,1.50
2022-12-04T15:57:34.805Z,1.43
2022-12-04T16:00:06.131Z,1.44
2022-12-04T16:02:40.901Z,1.47
2022-12-04T16:05:14.512Z,1.48
2022-12-04T16:07:51.624Z,1.50
2022-12-04T16:10:25.653Z,1.38
2022-12-04T16:12:55.851Z,1.36
2022-12-04T16:15:26.587Z,1.50
2022-12-04T16:17:55.328Z,1.67
2022-12-04T16:20:23.962Z,1.64
2022-12-04T16:22:55.635Z,1.61
2022-12-04T16:25:25.446Z,1.72
2022-12-04T16:27:53.696Z,1.72
2022-12-04T16:30:22.051Z,1.66
2022-12-04T16:32:50.353Z,1.73
2022-12-04T16:35:19.166Z,1.88
2022-12-04T16:37:47.965Z,1.83
2022-12-04T16:40:16.878Z,1.86
2022-12-04T16:42:46.498Z,1.72
2022-12-04T16:45:29.756Z,1.69
2022-12-04T16:47:58.476Z,1.96
2022-12-04T16:50:28.400Z,1.84
2022-12-04T16:53:00.037Z,1.98
2022-12-04T16:55:34.192Z,1.92
2022-12-04T16:58:03.950Z,1.70
2022-12-04T17:00:33.069Z,1.73
2022-12-04T17:03:04.055Z,1.75
2022-12-04T17:05:36.003Z,1.74
2022-12-04T17:08:04.793Z,1.97
2022-12-04T17:10:33.562Z,1.95
2022-12-04T17:13:03.655Z,1.96
2022-12-04T17:15:31.791Z,1.95
2022-12-04T17:18:05.880Z,1.98
2022-12-04T17:20:37.668Z,1.97
2022-12-04T17:23:06.258Z,2.01
2022-12-04T17:25:34.507Z,1.91
2022-12-04T17:28:04.301Z,1.70
2022-12-04T17:30:35.982Z,1.77
2022-12-04T17:33:05.521Z,1.87
2022-12-04T17:35:34.106Z,1.95
2022-12-04T17:38:06.220Z,2.02
2022-12-04T17:40:34.871Z,2.10
2022-12-04T17:43:04.961Z,2.22
2022-12-04T17:45:33.186Z,2.17
2022-12-04T17:48:01.757Z,2.30
2022-12-04T17:50:30.085Z,2.45
2022-12-04T17:52:58.432Z,2.45
2022-12-04T17:55:26.682Z,2.28
2022-12-04T17:57:55.509Z,2.54
2022-12-04T18:00:26.061Z,2.55
2022-12-04T18:02:54.356Z,2.45
2022-12-04T18:05:23.000Z,2.50
2022-12-04T18:07:51.364Z,2.43
2022-12-04T18:10:19.871Z,2.25
2022-12-04T18:12:48.421Z,2.25
2022-12-04T18:15:16.676Z,2.34
2022-12-04T18:17:46.777Z,2.57
2022-12-04T18:20:15.064Z,2.63
2022-12-04T18:22:43.983Z,2.77
2022-12-04T18:25:12.367Z,2.70
2022-12-04T18:27:42.160Z,2.77
2022-12-04T18:30:12.006Z,2.95
2022-12-04T18:32:40.536Z,2.89
2022-12-04T18:35:11.377Z,2.89
2022-12-04T18:37:40.651Z,2.90
2022-12-04T18:40:10.910Z,2.81
2022-12-04T18:42:39.076Z,2.66
2022-12-04T18:45:08.943Z,2.86
2022-12-04T18:47:37.534Z,2.89
2022-12-04T18:50:07.060Z,3.02
2022-12-04T18:52:38.501Z,2.99
2022-12-04T18:55:07.399Z,2.89
2022-12-04T18:57:35.859Z,2.94
2022-12-04T19:00:04.691Z,2.70
2022-12-04T19:02:33.246Z,2.61
2022-12-04T19:05:01.839Z,2.69
2022-12-04T19:07:30.328Z,2.78
2022-12-04T19:10:15.839Z,2.81
2022-12-04T19:12:44.127Z,2.50
2022-12-04T19:15:12.837Z,2.55
2022-12-04T19:17:41.267Z,2.54
2022-12-04T19:20:11.022Z,2.37
2022-12-04T19:22:40.055Z,2.37
2022-12-04T19:25:10.939Z,2.11
2022-12-04T19:27:39.303Z,2.21
2022-12-04T19:30:10.684Z,2.23
2022-12-04T19:32:40.368Z,2.22
2022-12-04T19:35:11.234Z,2.14
2022-12-04T19:37:42.218Z,2.10
2022-12-04T19:40:14.795Z,2.01
2022-12-04T19:42:43.158Z,2.06
2022-12-04T19:45:12.180Z,2.22
2022-12-04T19:47:40.806Z,2.21
2022-12-04T19:50:10.386Z,2.37
2022-12-04T19:52:39.155Z,2.40
2022-12-04T19:55:08.893Z,2.59
2022-12-04T19:57:39.609Z,2.47
2022-12-04T20:00:09.747Z,2.45
2022-12-04T20:02:40.998Z,2.38
2022-12-04T20:05:10.230Z,2.31
2022-12-04T20:07:38.489Z,2.48
2022-12-04T20:10:09.054Z,2.61
2022-12-04T20:12:39.777Z,2.37
2022-12-04T20:15:09.071Z,2.49
2022-12-04T20:17:37.728Z,2.35
2022-12-04T20:20:07.790Z,2.40
2022-12-04T20:22:36.990Z,2.55
2022-12-04T20:25:05.908Z,2.58
2022-12-04T20:27:35.111Z,2.58
2022-12-04T20:30:06.148Z,2.88
2022-12-04T20:32:35.067Z,2.96
2022-12-04T20:35:03.746Z,2.71
2022-12-04T20:37:32.057Z,2.86
2022-12-04T20:40:02.238Z,2.91
2022-12-04T20:42:33.664Z,3.02
2022-12-04T20:45:02.113Z,2.93
2022-12-04T20:47:33.074Z,2.96
2022-12-04T20:50:02.397Z,2.97
2022-12-04T20:52:30.966Z,2.86
2022-12-04T20:54:59.477Z,2.85
2022-12-04T20:57:28.698Z,2.83
2022-12-04T20:59:57.184Z,2.73
2022-12-04T21:02:26.278Z,2.72
2022-12-04T21:04:55.875Z,2.84
2022-12-04T21:07:24.123Z,2.70
2022-12-04T21:09:52.488Z,2.69
2022-12-04T21:12:43.026Z,2.51
2022-12-04T21:15:31.577Z,2.65
2022-12-04T21:18:01.937Z,2.67
2022-12-04T21:20:31.665Z,2.57
2022-12-04T21:22:59.903Z,2.60
2022-12-04T21:25:28.428Z,2.64
2022-12-04T21:27:56.772Z,2.69
2022-12-04T21:30:25.112Z,2.64
2022-12-04T21:32:54.613Z,2.42
2022-12-04T21:35:22.949Z,2.36
2022-12-04T21:37:53.026Z,2.59
2022-12-04T21:40:21.599Z,2.62
2022-12-04T21:42:49.778Z,2.59
2022-12-04T21:45:18.712Z,2.56
2022-12-04T21:47:46.994Z,2.67
2022-12-04T21:50:15.632Z,2.57
2022-12-04T21:52:44.855Z,2.71
2022-12-04T21:55:14.508Z,2.90
2022-12-04T21:57:42.746Z,2.60
2022-12-04T22:00:13.026Z,2.80
2022-12-04T22:03:11.682Z,2.98
2022-12-04T22:06:34.037Z,3.08
2022-12-04T22:09:33.311Z,3.11
2022-12-04T22:12:14.670Z,3.19
2022-12-04T22:14:51.473Z,3.23
2022-12-04T22:17:19.958Z,3.45
2022-12-04T22:19:48.176Z,3.35
2022-12-04T22:22:16.340Z,3.40
2022-12-04T22:24:44.583Z,3.36
2022-12-04T22:27:15.450Z,3.33
2022-12-04T22:29:51.490Z,3.38
2022-12-04T22:32:20.829Z,3.30
2022-12-04T22:34:49.966Z,3.37
2022-12-04T22:37:18.731Z,3.46
2022-12-04T22:39:46.954Z,3.04
2022-12-04T22:42:16.769Z,2.99
2022-12-04T22:44:44.941Z,3.09
2022-12-04T22:47:13.122Z,3.20
2022-12-04T22:49:41.479Z,3.13
2022-12-04T22:52:10.055Z,2.77
2022-12-04T22:54:38.400Z,3.06
2022-12-04T22:57:06.873Z,2.99
2022-12-04T22:59:36.602Z,2.85
2022-12-04T23:02:05.272Z,2.97
2022-12-04T23:04:33.876Z,3.13
2022-12-04T23:07:02.234Z,3.11
2022-12-04T23:09:31.711Z,3.32
2022-12-04T23:12:00.160Z,3.54
2022-12-04T23:14:28.892Z,3.36
2022-12-04T23:16:59.244Z,3.20
2022-12-04T23:19:27.544Z,3.10
2022-12-04T23:21:57.587Z,3.18
2022-12-04T23:24:27.395Z,3.17
2022-12-04T23:26:56.203Z,3.25
2022-12-04T23:29:56.227Z,3.39
2022-12-04T23:32:16.590Z,3.20
2022-12-04T23:34:44.788Z,3.29
2022-12-04T23:37:13.560Z,3.24
2022-12-04T23:39:44.673Z,3.25
2022-12-04T23:42:13.507Z,3.13
2022-12-04T23:44:41.825Z,3.31
2022-12-04T23:47:10.164Z,3.20
2022-12-04T23:49:40.337Z,3.34
2022-12-04T23:52:09.943Z,3.25
2022-12-04T23:54:38.526Z,3.40
2022-12-04T23:57:07.448Z,3.42
2022-12-04T23:59:35.923Z,3.59
